createdAt,value
2022-10-02T00:01:23.073Z,13.53
2022-10-02T00:03:51.201Z,13.50
2022-10-02T00:06:23.267Z,13.51
2022-10-02T00:08:55.396Z,13.56
2022-10-02T00:11:24.184Z,13.62
2022-10-02T00:13:57.507Z,13.64
2022-10-02T00:16:30.313Z,13.61
2022-10-02T00:18:58.970Z,13.72
2022-10-02T00:21:38.172Z,13.81
2022-10-02T00:24:08.932Z,13.79
2022-10-02T00:26:40.955Z,13.77
2022-10-02T00:29:32.182Z,13.77
2022-10-02T00:32:13.783Z,13.71
2022-10-02T00:34:53.575Z,13.69
2022-10-02T00:37:33.545Z,13.63
2022-10-02T00:40:15.364Z,13.62
2022-10-02T00:42:55.743Z,13.53
2022-10-02T00:45:49.914Z,13.55
2022-10-02T00:48:40.153Z,13.56
2022-10-02T00:51:22.594Z,13.55
2022-10-02T00:53:59.934Z,13.57
2022-10-02T00:56:42.115Z,13.60
2022-10-02T00:59:30.212Z,13.61
2022-10-02T01:02:05.885Z,13.64
2022-10-02T01:04:36.698Z,13.66
2022-10-02T01:07:07.368Z,13.68
2022-10-02T01:09:35.422Z,13.72
2022-10-02T01:12:05.085Z,13.73
2022-10-02T01:14:34.345Z,13.72
2022-10-02T01:17:03.751Z,13.71
2022-10-02T01:19:38.150Z,13.69
2022-10-02T01:22:16.581Z,13.66
2022-10-02T01:24:50.311Z,13.69
2022-10-02T01:27:18.175Z,13.73
2022-10-02T01:29:49.381Z,13.71
2022-10-02T01:32:18.036Z,13.73
2022-10-02T01:34:46.942Z,13.77
2022-10-02T01:37:14.700Z,13.89
2022-10-02T01:39:42.562Z,13.88
2022-10-02T01:42:11.631Z,13.83
2022-10-02T01:44:39.520Z,13.86
2022-10-02T01:47:11.752Z,13.87
2022-10-02T01:49:54.157Z,13.83
2022-10-02T01:52:34.379Z,13.85
2022-10-02T01:55:17.913Z,13.84
2022-10-02T01:58:02.898Z,13.88
2022-10-02T02:00:45.428Z,13.89
2022-10-02T02:03:21.426Z,13.84
2022-10-02T02:05:54.543Z,13.84
2022-10-02T02:08:30.305Z,13.75
2022-10-02T02:11:07.689Z,13.80
2022-10-02T02:13:46.005Z,13.84
2022-10-02T02:16:22.721Z,13.81
2022-10-02T02:18:59.040Z,13.84
2022-10-02T02:21:31.452Z,13.80
2022-10-02T02:24:03.911Z,13.78
2022-10-02T02:26:31.846Z,13.77
2022-10-02T02:29:04.394Z,13.80
2022-10-02T02:31:38.658Z,13.77
2022-10-02T02:34:12.476Z,13.78
2022-10-02T02:36:45.067Z,13.83
2022-10-02T02:39:16.416Z,13.84
2022-10-02T02:41:50.874Z,13.74
2022-10-02T02:44:25.863Z,13.82
2022-10-02T02:47:05.188Z,13.85
2022-10-02T02:49:45.551Z,13.88
2022-10-02T02:52:18.060Z,13.87
2022-10-02T02:54:50.252Z,13.84
2022-10-02T02:57:22.872Z,13.86
2022-10-02T02:59:54.887Z,13.89
2022-10-02T03:02:22.697Z,13.91
2022-10-02T03:04:50.464Z,13.90
2022-10-02T03:07:18.784Z,13.89
2022-10-02T03:09:58.078Z,13.91
2022-10-02T03:12:38.543Z,13.93
2022-10-02T03:15:19.207Z,13.95
2022-10-02T03:18:09.049Z,13.97
2022-10-02T03:20:43.604Z,13.97
2022-10-02T03:23:25.740Z,13.96
2022-10-02T03:25:59.915Z,13.97
2022-10-02T03:28:54.281Z,13.99
2022-10-02T03:31:24.551Z,13.93
2022-10-02T03:33:53.912Z,13.93
2022-10-02T03:36:24.571Z,13.95
2022-10-02T03:39:19.909Z,13.95
2022-10-02T03:41:43.797Z,13.95
2022-10-02T03:44:11.723Z,13.93
2022-10-02T03:46:41.147Z,13.96
2022-10-02T03:49:08.909Z,13.91
2022-10-02T03:51:36.585Z,13.90
2022-10-02T03:54:07.738Z,13.90
2022-10-02T03:56:41.445Z,13.90
2022-10-02T03:59:16.600Z,13.89
2022-10-02T04:01:51.615Z,13.88
2022-10-02T04:04:24.302Z,13.92
2022-10-02T04:06:56.860Z,13.91
2022-10-02T04:09:30.361Z,13.91
2022-10-02T04:12:02.739Z,13.93
2022-10-02T04:14:39.227Z,13.92
2022-10-02T04:17:14.548Z,13.91
2022-10-02T04:19:46.794Z,13.91
2022-10-02T04:22:21.799Z,13.84
2022-10-02T04:24:57.828Z,13.89
2022-10-02T04:27:34.467Z,13.86
2022-10-02T04:30:06.139Z,13.84
2022-10-02T04:32:37.597Z,13.82
2022-10-02T04:35:13.438Z,13.66
2022-10-02T04:37:56.922Z,13.72
2022-10-02T04:40:37.366Z,13.76
2022-10-02T04:43:16.625Z,13.76
2022-10-02T04:45:59.812Z,13.80
2022-10-02T04:49:09.621Z,13.80
2022-10-02T04:51:51.447Z,13.76
2022-10-02T04:54:54.295Z,13.89
2022-10-02T04:57:38.888Z,13.86
2022-10-02T05:00:11.006Z,13.92
2022-10-02T05:02:46.565Z,13.87
2022-10-02T05:05:26.221Z,13.91
2022-10-02T05:08:23.603Z,13.90
2022-10-02T05:11:10.328Z,13.92
2022-10-02T05:13:54.656Z,13.92
2022-10-02T05:16:37.566Z,13.92
2022-10-02T05:19:21.844Z,13.94
2022-10-02T05:22:07.510Z,13.95
2022-10-02T05:24:51.640Z,13.95
2022-10-02T05:27:42.976Z,13.94
2022-10-02T05:30:13.405Z,13.95
2022-10-02T05:33:15.593Z,13.95
2022-10-02T05:36:00.960Z,13.99
2022-10-02T05:38:48.635Z,13.98
2022-10-02T05:41:23.251Z,13.98
2022-10-02T05:43:58.661Z,14.01
2022-10-02T05:46:28.173Z,14.03
2022-10-02T05:49:00.271Z,14.00
2022-10-02T05:51:36.656Z,14.02
2022-10-02T05:54:14.882Z,14.03
2022-10-02T05:56:48.784Z,14.02
2022-10-02T05:59:29.873Z,13.97
2022-10-02T06:02:03.491Z,13.97
2022-10-02T06:04:37.068Z,14.01
2022-10-02T06:07:09.216Z,14.08
2022-10-02T06:09:42.240Z,14.13
2022-10-02T06:12:15.559Z,14.15
2022-10-02T06:14:50.696Z,14.19
2022-10-02T06:17:25.825Z,14.18
2022-10-02T06:20:03.384Z,14.26
2022-10-02T06:22:36.710Z,14.21
2022-10-02T06:25:13.416Z,14.20
2022-10-02T06:27:46.671Z,14.28
2022-10-02T06:30:16.752Z,14.27
2022-10-02T06:32:52.534Z,14.31
2022-10-02T06:35:35.832Z,14.34
2022-10-02T06:38:22.828Z,14.39
2022-10-02T06:41:02.446Z,14.49
2022-10-02T06:43:58.988Z,14.58
2022-10-02T06:46:34.566Z,14.64
2022-10-02T06:49:09.854Z,14.76
2022-10-02T06:51:52.687Z,14.82
2022-10-02T06:54:35.440Z,15.00
2022-10-02T06:57:21.496Z,15.13
2022-10-02T07:00:03.796Z,15.16
2022-10-02T07:02:41.898Z,15.10
2022-10-02T07:05:45.781Z,15.16
2022-10-02T07:08:22.023Z,15.27
2022-10-02T07:11:00.904Z,15.53
2022-10-02T07:13:48.058Z,15.58
2022-10-02T07:16:33.205Z,15.62
2022-10-02T07:19:51.454Z,15.80
2022-10-02T07:22:44.667Z,15.89
2022-10-02T07:25:45.075Z,15.86
2022-10-02T07:28:19.364Z,15.88
2022-10-02T07:30:58.668Z,16.05
2022-10-02T07:33:40.445Z,16.28
2022-10-02T07:36:12.916Z,16.46
2022-10-02T07:38:58.752Z,16.59
2022-10-02T07:41:53.201Z,16.69
2022-10-02T07:44:35.140Z,16.99
2022-10-02T07:47:12.215Z,17.39
2022-10-02T07:49:50.330Z,18.60
2022-10-02T07:52:25.711Z,18.83
2022-10-02T07:55:07.311Z,18.36
2022-10-02T07:57:41.771Z,18.45
2022-10-02T08:00:15.199Z,17.65
2022-10-02T08:02:53.289Z,17.54
2022-10-02T08:05:24.538Z,17.42
2022-10-02T08:07:57.930Z,17.51
2022-10-02T08:10:28.882Z,17.59
2022-10-02T08:13:06.066Z,17.63
2022-10-02T08:15:38.601Z,17.60
2022-10-02T08:18:34.638Z,18.25
2022-10-02T08:21:03.938Z,19.33
2022-10-02T08:23:38.422Z,18.78
2022-10-02T08:26:10.835Z,18.72
2022-10-02T08:28:44.106Z,18.44
2022-10-02T08:31:13.525Z,18.60
2022-10-02T08:33:43.510Z,18.52
2022-10-02T08:36:38.842Z,18.23
2022-10-02T08:39:22.913Z,18.29
2022-10-02T08:42:27.159Z,18.11
2022-10-02T08:45:35.441Z,18.11
2022-10-02T08:48:43.655Z,17.73
2022-10-02T08:51:47.019Z,17.56
2022-10-02T08:54:38.681Z,17.50
2022-10-02T08:57:37.772Z,17.38
2022-10-02T09:00:14.430Z,17.29
2022-10-02T09:03:24.690Z,17.21
2022-10-02T09:06:38.611Z,17.20
2022-10-02T09:09:55.413Z,17.15
2022-10-02T09:12:58.953Z,17.18
2022-10-02T09:15:41.348Z,17.16
2022-10-02T09:18:17.922Z,17.33
2022-10-02T09:21:24.140Z,17.20
2022-10-02T09:24:39.257Z,17.33
2022-10-02T09:27:54.838Z,17.42
2022-10-02T09:30:40.450Z,17.40
2022-10-02T09:33:43.419Z,17.26
2022-10-02T09:36:52.064Z,17.08
2022-10-02T09:39:51.647Z,16.92
2022-10-02T09:42:55.587Z,16.81
2022-10-02T09:46:14.443Z,16.80
2022-10-02T09:49:14.607Z,16.69
2022-10-02T09:52:19.090Z,16.60
2022-10-02T09:55:18.766Z,16.45
2022-10-02T09:58:20.010Z,16.38
2022-10-02T10:01:12.008Z,16.38
2022-10-02T10:04:14.441Z,16.36
2022-10-02T10:07:07.685Z,16.24
2022-10-02T10:10:12.740Z,16.40
2022-10-02T10:13:07.501Z,16.48
2022-10-02T10:16:04.210Z,16.40
2022-10-02T10:19:03.226Z,16.39
2022-10-02T10:21:58.372Z,16.43
2022-10-02T10:25:05.115Z,16.23
2022-10-02T10:27:50.899Z,16.35
2022-10-02T10:31:10.318Z,16.18
2022-10-02T10:34:07.494Z,16.32
2022-10-02T10:37:13.077Z,16.31
2022-10-02T10:40:15.691Z,16.41
2022-10-02T10:43:07.038Z,16.47
2022-10-02T10:45:54.064Z,16.53
2022-10-02T10:48:40.795Z,16.63
2022-10-02T10:51:33.662Z,16.70
2022-10-02T10:54:34.414Z,16.71
2022-10-02T10:57:09.946Z,16.79
2022-10-02T11:00:03.547Z,17.02
2022-10-02T11:03:08.519Z,17.21
2022-10-02T11:06:17.838Z,17.30
2022-10-02T11:09:30.099Z,17.42
2022-10-02T11:12:41.272Z,17.37
2022-10-02T11:15:42.113Z,17.34
2022-10-02T11:18:24.425Z,17.42
2022-10-02T11:21:11.775Z,17.38
2022-10-02T11:23:55.071Z,17.67
2022-10-02T11:26:47.563Z,17.85
2022-10-02T11:29:57.777Z,18.13
2022-10-02T11:32:59.142Z,18.27
2022-10-02T11:35:48.304Z,18.35
2022-10-02T11:38:35.439Z,18.99
2022-10-02T11:41:33.318Z,19.26
2022-10-02T11:44:13.838Z,19.20
2022-10-02T11:47:20.234Z,19.21
2022-10-02T11:50:29.112Z,18.82
2022-10-02T11:53:29.294Z,18.98
2022-10-02T11:56:10.282Z,19.53
2022-10-02T11:58:54.914Z,19.16
2022-10-02T12:01:32.537Z,19.20
2022-10-02T12:04:26.074Z,19.56
2022-10-02T12:07:13.270Z,19.90
2022-10-02T12:09:55.174Z,20.11
2022-10-02T12:12:38.532Z,20.40
2022-10-02T12:15:14.960Z,20.83
2022-10-02T12:17:53.281Z,19.83
2022-10-02T12:20:55.621Z,20.00
2022-10-02T12:23:52.101Z,19.98
2022-10-02T12:26:55.043Z,20.20
2022-10-02T12:29:35.365Z,21.04
2022-10-02T12:32:13.675Z,21.13
2022-10-02T12:34:53.675Z,21.60
2022-10-02T12:37:31.599Z,21.64
2022-10-02T12:40:08.459Z,21.11
2022-10-02T12:43:05.309Z,21.72
2022-10-02T12:46:10.219Z,20.95
2022-10-02T12:49:00.875Z,20.97
2022-10-02T12:51:37.162Z,20.57
2022-10-02T12:54:58.595Z,20.93
2022-10-02T12:57:56.199Z,20.39
2022-10-02T13:00:26.991Z,20.25
2022-10-02T13:03:29.435Z,20.26
2022-10-02T13:06:14.945Z,20.34
2022-10-02T13:09:18.724Z,20.36
2022-10-02T13:12:05.271Z,19.86
2022-10-02T13:15:02.766Z,20.01
2022-10-02T13:17:39.561Z,20.02
2022-10-02T13:20:20.624Z,20.15
2022-10-02T13:23:00.963Z,19.97
2022-10-02T13:25:42.846Z,20.33
2022-10-02T13:28:43.554Z,20.63
2022-10-02T13:31:23.188Z,20.69
2022-10-02T13:34:11.828Z,20.58
2022-10-02T13:36:52.627Z,20.53
2022-10-02T13:39:43.782Z,20.67
2022-10-02T13:42:28.973Z,20.87
2022-10-02T13:45:10.269Z,20.70
2022-10-02T13:47:43.989Z,20.34
2022-10-02T13:50:26.048Z,20.31
2022-10-02T13:53:02.481Z,20.53
2022-10-02T13:55:33.714Z,20.99
2022-10-02T13:58:25.021Z,21.13
2022-10-02T14:01:08.536Z,20.63
2022-10-02T14:03:56.447Z,20.66
2022-10-02T14:06:28.996Z,20.65
2022-10-02T14:09:08.241Z,20.53
2022-10-02T14:11:53.791Z,20.63
2022-10-02T14:14:35.811Z,20.58
2022-10-02T14:17:15.066Z,20.59
2022-10-02T14:19:57.988Z,20.44
2022-10-02T14:22:37.061Z,20.37
2022-10-02T14:25:22.707Z,20.26
2022-10-02T14:28:04.366Z,20.16
2022-10-02T14:30:50.799Z,20.05
2022-10-02T14:33:31.033Z,19.96
2022-10-02T14:36:08.111Z,19.96
2022-10-02T14:38:41.971Z,19.92
2022-10-02T14:41:34.642Z,19.81
2022-10-02T14:44:29.111Z,19.77
2022-10-02T14:47:17.437Z,19.86
2022-10-02T14:50:03.724Z,19.54
2022-10-02T14:53:12.942Z,19.76
2022-10-02T14:56:17.314Z,19.75
2022-10-02T14:58:58.041Z,19.83
2022-10-02T15:01:27.267Z,20.01
2022-10-02T15:04:29.760Z,19.62
2022-10-02T15:07:04.339Z,19.63
2022-10-02T15:09:41.219Z,20.02
2022-10-02T15:12:15.057Z,19.85
2022-10-02T15:14:55.827Z,19.86
2022-10-02T15:17:56.368Z,19.78
2022-10-02T15:20:50.559Z,19.74
2022-10-02T15:23:41.492Z,19.68
2022-10-02T15:26:36.577Z,19.55
2022-10-02T15:29:18.489Z,19.36
2022-10-02T15:32:14.455Z,19.40
2022-10-02T15:34:47.283Z,19.46
2022-10-02T15:37:25.182Z,19.52
2022-10-02T15:40:10.893Z,19.38
2022-10-02T15:42:58.583Z,19.35
2022-10-02T15:45:54.469Z,19.23
2022-10-02T15:48:52.633Z,19.19
2022-10-02T15:51:39.522Z,19.11
2022-10-02T15:54:19.229Z,18.94
2022-10-02T15:57:08.624Z,18.92
2022-10-02T15:59:50.814Z,18.87
2022-10-02T16:02:23.895Z,18.78
2022-10-02T16:05:08.304Z,18.70
2022-10-02T16:07:57.616Z,18.46
2022-10-02T16:10:27.038Z,18.45
2022-10-02T16:13:12.595Z,18.42
2022-10-02T16:15:52.180Z,18.35
2022-10-02T16:18:37.231Z,18.29
2022-10-02T16:21:39.869Z,18.29
2022-10-02T16:24:34.449Z,18.21
2022-10-02T16:27:26.115Z,18.12
2022-10-02T16:30:05.301Z,18.10
2022-10-02T16:32:42.747Z,18.22
2022-10-02T16:35:24.159Z,18.07
2022-10-02T16:38:00.741Z,18.05
2022-10-02T16:40:41.056Z,18.01
2022-10-02T16:43:38.059Z,17.97
2022-10-02T16:46:11.901Z,17.99
2022-10-02T16:48:49.000Z,18.02
2022-10-02T16:51:32.310Z,17.94
2022-10-02T16:54:12.569Z,17.88
2022-10-02T16:56:45.979Z,17.92
2022-10-02T16:59:17.219Z,17.88
2022-10-02T17:02:13.155Z,17.78
2022-10-02T17:04:46.126Z,17.72
2022-10-02T17:07:29.797Z,17.56
2022-10-02T17:10:07.235Z,17.44
2022-10-02T17:12:45.117Z,17.46
2022-10-02T17:15:22.218Z,17.54
2022-10-02T17:18:06.257Z,17.66
2022-10-02T17:20:41.667Z,17.62
2022-10-02T17:23:17.156Z,17.58
2022-10-02T17:25:51.775Z,17.44
2022-10-02T17:28:26.450Z,17.60
2022-10-02T17:31:13.349Z,17.42
2022-10-02T17:33:47.876Z,17.25
2022-10-02T17:36:23.678Z,17.09
2022-10-02T17:39:04.658Z,17.29
2022-10-02T17:41:52.634Z,17.23
2022-10-02T17:44:36.923Z,17.10
2022-10-02T17:47:25.163Z,17.22
2022-10-02T17:50:07.774Z,17.17
2022-10-02T17:53:01.756Z,17.09
2022-10-02T17:56:30.399Z,16.94
2022-10-02T17:59:36.523Z,16.69
2022-10-02T18:02:17.524Z,16.46
2022-10-02T18:04:59.236Z,16.42
2022-10-02T18:07:40.654Z,16.27
2022-10-02T18:10:18.275Z,16.05
2022-10-02T18:13:14.962Z,16.03
2022-10-02T18:16:08.223Z,15.90
2022-10-02T18:18:41.413Z,15.79
2022-10-02T18:21:22.082Z,15.84
2022-10-02T18:24:21.068Z,15.78
2022-10-02T18:27:02.060Z,15.66
2022-10-02T18:29:41.200Z,15.60
2022-10-02T18:32:26.437Z,15.71
2022-10-02T18:35:07.324Z,15.53
2022-10-02T18:37:53.653Z,15.30
2022-10-02T18:40:28.480Z,15.19
2022-10-02T18:43:22.484Z,14.99
2022-10-02T18:46:00.922Z,14.89
2022-10-02T18:48:51.675Z,14.85
2022-10-02T18:51:37.801Z,14.71
2022-10-02T18:54:24.451Z,14.96
2022-10-02T18:57:05.416Z,15.01
2022-10-02T18:59:42.781Z,14.94
2022-10-02T19:02:26.278Z,15.37
2022-10-02T19:05:07.504Z,15.30
2022-10-02T19:07:41.858Z,15.36
2022-10-02T19:10:29.291Z,15.44
2022-10-02T19:13:02.530Z,15.47
2022-10-02T19:15:33.172Z,15.31
2022-10-02T19:18:03.485Z,15.17
2022-10-02T19:20:50.193Z,15.02
2022-10-02T19:23:37.322Z,14.94
2022-10-02T19:26:15.789Z,14.92
2022-10-02T19:28:48.459Z,14.85
2022-10-02T19:31:22.634Z,14.83
2022-10-02T19:33:54.117Z,14.78
2022-10-02T19:36:25.242Z,14.74
2022-10-02T19:38:56.907Z,14.81
2022-10-02T19:41:25.201Z,14.75
2022-10-02T19:44:00.028Z,14.69
2022-10-02T19:46:35.493Z,14.74
2022-10-02T19:49:03.843Z,14.74
2022-10-02T19:51:43.753Z,14.76
2022-10-02T19:54:17.412Z,14.79
2022-10-02T19:56:46.247Z,14.84
2022-10-02T19:59:18.946Z,14.96
2022-10-02T20:01:51.866Z,14.97
2022-10-02T20:04:21.763Z,14.99
2022-10-02T20:06:53.834Z,15.07
2022-10-02T20:09:25.063Z,15.01
2022-10-02T20:11:55.952Z,14.93
2022-10-02T20:14:29.311Z,14.65
2022-10-02T20:17:10.965Z,14.73
2022-10-02T20:19:45.231Z,14.73
2022-10-02T20:22:22.786Z,14.67
2022-10-02T20:24:55.749Z,14.78
2022-10-02T20:27:34.821Z,14.77
2022-10-02T20:30:08.172Z,14.68
2022-10-02T20:32:39.734Z,14.57
2022-10-02T20:35:15.704Z,14.63
2022-10-02T20:37:46.615Z,14.56
2022-10-02T20:40:17.572Z,14.61
2022-10-02T20:42:53.257Z,14.60
2022-10-02T20:45:28.104Z,14.66
2022-10-02T20:48:49.547Z,14.75
2022-10-02T20:51:29.629Z,14.75
2022-10-02T20:54:25.115Z,14.74
2022-10-02T20:57:43.447Z,14.74
2022-10-02T21:00:19.042Z,14.66
2022-10-02T21:03:18.457Z,14.68
2022-10-02T21:06:26.974Z,14.64
2022-10-02T21:09:36.542Z,14.65
2022-10-02T21:12:36.929Z,14.63
2022-10-02T21:15:32.041Z,14.61
2022-10-02T21:18:16.514Z,14.60
2022-10-02T21:21:03.432Z,14.64
2022-10-02T21:23:50.741Z,14.60
2022-10-02T21:26:52.597Z,14.56
2022-10-02T21:29:44.512Z,14.62
2022-10-02T21:32:31.091Z,14.68
2022-10-02T21:35:14.184Z,14.58
2022-10-02T21:37:58.547Z,14.61
2022-10-02T21:41:08.135Z,14.61
2022-10-02T21:44:22.447Z,14.57
2022-10-02T21:47:27.344Z,14.63
2022-10-02T21:50:30.041Z,14.62
2022-10-02T21:53:39.740Z,14.53
2022-10-02T21:56:42.934Z,14.45
2022-10-02T21:59:35.231Z,14.44
2022-10-02T22:03:04.433Z,14.42
2022-10-02T22:06:07.683Z,14.44
2022-10-02T22:08:51.512Z,14.42
2022-10-02T22:11:27.094Z,14.43
2022-10-02T22:14:01.053Z,14.49
2022-10-02T22:16:38.999Z,14.43
2022-10-02T22:19:20.485Z,14.34
2022-10-02T22:22:04.028Z,14.42
2022-10-02T22:24:55.907Z,14.43
2022-10-02T22:27:47.623Z,14.38
2022-10-02T22:30:24.405Z,14.38
2022-10-02T22:33:13.573Z,14.37
2022-10-02T22:36:07.578Z,14.42
2022-10-02T22:38:38.918Z,14.40
2022-10-02T22:41:18.153Z,14.32
2022-10-02T22:43:50.544Z,14.36
2022-10-02T22:46:29.401Z,14.37
2022-10-02T22:49:02.133Z,14.32
2022-10-02T22:51:38.002Z,14.39
2022-10-02T22:54:22.715Z,14.41
2022-10-02T22:56:58.673Z,14.39
2022-10-02T22:59:32.805Z,14.37
2022-10-02T23:02:10.638Z,14.37
2022-10-02T23:04:45.004Z,14.35
2022-10-02T23:07:17.181Z,14.36
2022-10-02T23:09:51.596Z,14.38
2022-10-02T23:12:27.930Z,14.43
2022-10-02T23:15:06.663Z,14.45
2022-10-02T23:17:40.953Z,14.44
2022-10-02T23:20:16.980Z,14.46
2022-10-02T23:22:54.402Z,14.28
2022-10-02T23:25:32.121Z,14.37
2022-10-02T23:28:06.692Z,14.17
2022-10-02T23:30:39.896Z,13.97
2022-10-02T23:33:23.162Z,14.02
2022-10-02T23:35:56.217Z,14.06
2022-10-02T23:38:32.174Z,14.03
2022-10-02T23:41:25.632Z,13.99
2022-10-02T23:44:05.240Z,13.83
2022-10-02T23:46:38.612Z,13.89
2022-10-02T23:49:10.193Z,13.91
2022-10-02T23:51:53.095Z,14.02
2022-10-02T23:54:37.439Z,13.92
2022-10-02T23:57:38.851Z,13.73
